Time;durP1;ratioP1;P1;durP2;ratioP2;P2;SDS_P1;SDS_P2;PMS_P1;PMS_P2;Temp;Humidity;BMP_temperature;BMP_pressure;BME280_temperature;BME280_humidity;BME280_pressure;Samples;Min_cycle;Max_cycle;Signal;HPM_P1;HPM_P2
2020/12/01 00:01:04;;;;;;;6.25;5.30;;;2.00;99.90;;;;;;5001629;28;20416;-45
2020/12/01 00:03:29;;;;;;;6.10;5.10;;;2.00;99.90;;;;;;5003525;28;20904;-46
2020/12/01 00:05:56;;;;;;;4.83;4.33;;;2.00;99.90;;;;;;5000385;28;20393;-47
2020/12/01 00:08:21;;;;;;;6.63;5.00;;;2.00;99.90;;;;;;4995548;28;20478;-47
2020/12/01 00:10:47;;;;;;;5.10;4.60;;;2.00;99.90;;;;;;5001701;28;20442;-45
2020/12/01 00:13:13;;;;;;;6.63;4.70;;;2.00;99.90;;;;;;5004709;28;20907;-47
2020/12/01 00:15:38;;;;;;;5.83;5.30;;;1.90;99.90;;;;;;5002268;28;20405;-45
2020/12/01 00:18:04;;;;;;;6.65;5.20;;;1.90;99.90;;;;;;4987417;28;20434;-46
2020/12/01 00:20:30;;;;;;;5.73;4.57;;;2.00;99.90;;;;;;4985347;28;20391;-47
2020/12/01 00:22:55;;;;;;;5.77;4.60;;;2.00;99.90;;;;;;5003349;28;20423;-48
2020/12/01 00:25:22;;;;;;;5.32;4.75;;;2.00;99.90;;;;;;5000340;28;20408;-47
2020/12/01 00:27:47;;;;;;;7.25;5.60;;;2.00;99.90;;;;;;5001165;28;20409;-47
2020/12/01 00:30:19;;;;;;;5.97;5.28;;;2.00;99.90;;;;;;5003567;28;20399;-49
2020/12/01 00:32:44;;;;;;;5.95;5.07;;;2.00;99.90;;;;;;5002289;28;20404;-45
2020/12/01 00:35:12;;;;;;;5.88;5.05;;;2.00;99.90;;;;;;5003388;28;20764;-45
2020/12/01 00:37:37;;;;;;;6.53;5.32;;;1.90;99.90;;;;;;5002375;28;20938;-48
2020/12/01 00:40:04;;;;;;;5.90;4.40;;;1.90;99.90;;;;;;5001195;28;20397;-44
2020/12/01 00:42:30;;;;;;;7.38;5.25;;;1.80;99.90;;;;;;5003333;28;20408;-48
2020/12/01 00:44:56;;;;;;;5.88;4.60;;;1.90;99.90;;;;;;4993925;28;20393;-44
2020/12/01 00:47:22;;;;;;;5.40;4.90;;;1.80;99.90;;;;;;5003339;28;20400;-48
2020/12/01 00:49:47;;;;;;;6.57;5.15;;;1.70;99.90;;;;;;5003243;28;20876;-46
2020/12/01 00:52:13;;;;;;;5.18;4.57;;;1.70;99.90;;;;;;5002642;28;20455;-47
2020/12/01 00:54:39;;;;;;;7.07;5.27;;;1.80;99.90;;;;;;5003175;28;20424;-47
2020/12/01 00:57:04;;;;;;;6.43;4.97;;;1.70;99.90;;;;;;4998031;28;20456;-47
2020/12/01 00:59:31;;;;;;;6.03;4.85;;;1.60;99.90;;;;;;4966865;28;20420;-48
2020/12/01 01:01:58;;;;;;;6.33;5.10;;;1.60;99.90;;;;;;4979361;28;20393;-44
2020/12/01 01:04:23;;;;;;;6.93;5.13;;;1.60;99.90;;;;;;4993995;28;20407;-46
2020/12/01 01:06:50;;;;;;;7.63;5.28;;;1.60;99.90;;;;;;5002098;28;20403;-48
2020/12/01 01:09:19;;;;;;;5.50;4.80;;;1.60;99.90;;;;;;5000347;28;20461;-47
2020/12/01 01:11:45;;;;;;;5.65;4.95;;;1.50;99.90;;;;;;5003089;28;20771;-48
2020/12/01 01:14:12;;;;;;;6.87;5.23;;;1.50;99.90;;;;;;4999953;28;20401;-48
2020/12/01 01:16:41;;;;;;;6.05;5.13;;;1.40;99.90;;;;;;4985044;28;20818;-48
2020/12/01 01:19:07;;;;;;;6.43;5.72;;;1.40;99.90;;;;;;4998328;28;20422;-47
2020/12/01 01:21:41;;;;;;;6.60;4.80;;;1.30;99.90;;;;;;5001597;28;20409;-48
2020/12/01 01:24:07;;;;;;;7.95;5.00;;;1.30;99.90;;;;;;5003133;28;20519;-47
2020/12/01 01:26:33;;;;;;;6.22;4.70;;;1.30;99.90;;;;;;4992474;28;20480;-46
2020/12/01 01:28:58;;;;;;;7.10;5.30;;;1.30;99.90;;;;;;4992590;28;20416;-47
2020/12/01 01:31:24;;;;;;;6.75;5.45;;;1.20;99.90;;;;;;4999954;28;20439;-47
2020/12/01 01:33:50;;;;;;;6.23;5.30;;;1.20;99.90;;;;;;5004414;28;20420;-47
2020/12/01 01:36:15;;;;;;;7.60;5.18;;;1.20;99.90;;;;;;5001228;28;20923;-48
2020/12/01 01:38:41;;;;;;;5.88;5.13;;;1.20;99.90;;;;;;5005292;28;20792;-46
2020/12/01 01:41:08;;;;;;;7.10;5.40;;;1.30;99.90;;;;;;5003862;28;20409;-46
2020/12/01 01:43:33;;;;;;;7.10;5.55;;;1.30;99.90;;;;;;4999750;28;20409;-49
2020/12/01 01:45:59;;;;;;;7.28;5.72;;;1.30;99.90;;;;;;5001491;28;20421;-47
2020/12/01 01:48:29;;;;;;;7.90;5.33;;;1.40;99.90;;;;;;4999554;28;20410;-47
2020/12/01 01:51:03;;;;;;;8.32;6.32;;;1.40;99.90;;;;;;4984060;28;20504;-46
2020/12/01 01:53:30;;;;;;;8.07;5.88;;;1.40;99.90;;;;;;5012111;28;20797;-47
2020/12/01 01:55:57;;;;;;;6.68;5.57;;;1.40;99.90;;;;;;5000224;28;20408;-44
2020/12/01 01:58:26;;;;;;;7.93;6.10;;;1.50;99.90;;;;;;4985579;28;20505;-46
2020/12/01 02:00:58;;;;;;;7.75;6.07;;;1.40;99.90;;;;;;5000511;28;20419;-45
2020/12/01 02:03:26;;;;;;;8.30;5.50;;;1.50;99.90;;;;;;4982390;28;20413;-47
2020/12/01 02:05:51;;;;;;;6.97;5.95;;;1.50;99.90;;;;;;4992278;28;20415;-47
2020/12/01 02:08:17;;;;;;;7.47;5.70;;;1.50;99.90;;;;;;4978979;28;20424;-47
2020/12/01 02:10:42;;;;;;;8.53;6.00;;;1.60;99.90;;;;;;5009025;28;20501;-51
2020/12/01 02:13:08;;;;;;;7.47;5.68;;;1.50;99.90;;;;;;5002969;28;20947;-47
2020/12/01 02:15:34;;;;;;;7.47;5.90;;;1.60;99.90;;;;;;4990958;28;20411;-48
2020/12/01 02:17:59;;;;;;;7.55;6.35;;;1.60;99.90;;;;;;4996982;28;20446;-45
2020/12/01 02:20:27;;;;;;;9.77;6.50;;;1.60;99.90;;;;;;5006355;28;20389;-47
2020/12/01 02:22:54;;;;;;;9.15;6.72;;;1.60;99.90;;;;;;4994686;28;20397;-47
2020/12/01 02:25:20;;;;;;;9.18;6.45;;;1.60;99.90;;;;;;5003607;28;20416;-46
2020/12/01 02:27:53;;;;;;;8.70;6.70;;;1.60;99.90;;;;;;5007294;28;20416;-46
2020/12/01 02:30:19;;;;;;;8.82;7.03;;;1.60;99.90;;;;;;5002990;28;20397;-47
2020/12/01 02:32:45;;;;;;;9.13;6.90;;;1.60;99.90;;;;;;5001902;28;20503;-46
2020/12/01 02:35:10;;;;;;;8.80;5.95;;;1.60;99.90;;;;;;5004442;28;20471;-46
2020/12/01 02:37:37;;;;;;;8.97;5.90;;;1.60;99.90;;;;;;4997634;28;20465;-45
2020/12/01 02:40:05;;;;;;;8.88;6.38;;;1.70;99.90;;;;;;4995333;28;20563;-49
2020/12/01 02:42:31;;;;;;;7.73;5.93;;;1.70;99.90;;;;;;4996614;28;20567;-47
2020/12/01 02:44:57;;;;;;;7.43;6.23;;;1.70;99.90;;;;;;4978311;28;20410;-46
2020/12/01 02:47:23;;;;;;;8.10;6.63;;;1.70;99.90;;;;;;4991934;28;20955;-47
2020/12/01 02:49:48;;;;;;;8.75;6.25;;;1.70;99.90;;;;;;4994228;28;20418;-45
2020/12/01 02:52:14;;;;;;;7.43;6.27;;;1.70;99.90;;;;;;5013700;28;20439;-46
2020/12/01 02:54:40;;;;;;;7.65;5.78;;;1.70;99.90;;;;;;4998327;28;20472;-46
2020/12/01 02:57:05;;;;;;;7.90;6.40;;;1.70;99.90;;;;;;5006988;28;20498;-47
2020/12/01 02:59:31;;;;;;;6.87;5.80;;;1.80;99.90;;;;;;4990763;28;20407;-46
2020/12/01 03:01:57;;;;;;;7.28;5.70;;;1.70;99.90;;;;;;5004592;28;20404;-47
2020/12/01 03:04:22;;;;;;;7.20;5.93;;;1.70;99.90;;;;;;4993068;28;20972;-47
2020/12/01 03:06:48;;;;;;;6.77;5.83;;;1.70;99.90;;;;;;5008913;28;20418;-46
2020/12/01 03:09:15;;;;;;;8.23;6.30;;;1.70;99.90;;;;;;4999857;28;20767;-46
2020/12/01 03:11:41;;;;;;;10.35;6.63;;;1.80;99.90;;;;;;4997623;28;20463;-47
2020/12/01 03:14:07;;;;;;;6.68;5.75;;;1.80;99.90;;;;;;4997701;28;20448;-45
2020/12/01 03:16:32;;;;;;;7.10;5.80;;;1.80;99.90;;;;;;5000254;28;20429;-46
2020/12/01 03:18:58;;;;;;;7.10;5.50;;;1.80;99.90;;;;;;4992778;28;20428;-49
2020/12/01 03:21:23;;;;;;;7.28;6.45;;;1.80;99.90;;;;;;4996879;28;20426;-47
2020/12/01 03:23:49;;;;;;;6.73;6.03;;;1.80;99.90;;;;;;5002464;28;20417;-48
2020/12/01 03:26:16;;;;;;;7.40;5.85;;;1.80;99.90;;;;;;5001182;28;20912;-48
2020/12/01 03:28:42;;;;;;;7.50;6.40;;;1.80;99.90;;;;;;4989600;28;20995;-48
2020/12/01 03:31:08;;;;;;;6.93;5.78;;;1.80;99.90;;;;;;4997828;28;20883;-49
2020/12/01 03:33:34;;;;;;;7.20;6.03;;;1.80;99.90;;;;;;5000489;28;20416;-49
2020/12/01 03:36:00;;;;;;;7.57;5.72;;;1.80;99.90;;;;;;5001035;28;20788;-48
2020/12/01 03:38:25;;;;;;;8.43;6.13;;;1.80;99.90;;;;;;4996551;28;20409;-48
2020/12/01 03:40:51;;;;;;;7.60;5.88;;;1.80;99.90;;;;;;4997523;28;20427;-48
2020/12/01 03:43:16;;;;;;;7.67;5.70;;;1.80;99.90;;;;;;5002620;28;20403;-47
2020/12/01 03:45:42;;;;;;;6.67;5.60;;;1.80;99.90;;;;;;4977305;28;20899;-47
2020/12/01 03:48:08;;;;;;;6.75;5.40;;;1.80;99.90;;;;;;5003026;28;20411;-48
2020/12/01 03:50:33;;;;;;;10.97;7.07;;;1.90;99.90;;;;;;5001578;28;20430;-47
2020/12/01 03:52:59;;;;;;;7.72;5.85;;;1.80;99.90;;;;;;4981651;28;20819;-48
2020/12/01 03:55:25;;;;;;;7.40;5.60;;;1.80;99.90;;;;;;5005082;28;20393;-48
2020/12/01 03:57:51;;;;;;;8.10;5.90;;;1.80;99.90;;;;;;4985449;28;20415;-48
2020/12/01 04:00:18;;;;;;;6.50;5.77;;;1.90;99.90;;;;;;4993231;28;20399;-49
2020/12/01 04:02:44;;;;;;;8.13;6.68;;;1.90;99.90;;;;;;4998915;28;20397;-48
2020/12/01 04:05:10;;;;;;;9.05;6.43;;;1.90;99.90;;;;;;5001367;28;20990;-47
2020/12/01 04:07:35;;;;;;;8.73;6.00;;;1.90;99.90;;;;;;5000044;28;20910;-48
2020/12/01 04:10:01;;;;;;;7.63;5.97;;;2.00;99.90;;;;;;4997012;28;20910;-49
2020/12/01 04:12:27;;;;;;;6.57;5.80;;;1.90;99.90;;;;;;5000364;28;20409;-47
2020/12/01 04:14:54;;;;;;;7.28;6.13;;;1.90;99.90;;;;;;5000034;28;20943;-47
2020/12/01 04:17:19;;;;;;;8.15;6.32;;;2.00;99.90;;;;;;4985100;28;20821;-47
2020/12/01 04:19:45;;;;;;;8.20;6.00;;;2.00;99.90;;;;;;5001949;28;20415;-48
2020/12/01 04:22:11;;;;;;;8.63;6.73;;;2.00;99.90;;;;;;4997461;28;20560;-48
2020/12/01 04:24:37;;;;;;;7.30;6.43;;;2.00;99.90;;;;;;4998532;28;20405;-48
2020/12/01 04:27:03;;;;;;;6.83;5.73;;;2.00;99.90;;;;;;5002350;28;20415;-47
2020/12/01 04:29:28;;;;;;;8.33;6.00;;;2.00;99.90;;;;;;5004714;28;20433;-47
2020/12/01 04:31:54;;;;;;;8.20;6.28;;;2.00;99.90;;;;;;5014011;28;20925;-46
2020/12/01 04:34:20;;;;;;;7.60;6.73;;;2.00;99.90;;;;;;4993191;28;20417;-47
2020/12/01 04:36:45;;;;;;;8.15;6.75;;;2.00;99.90;;;;;;5000907;28;20401;-47
2020/12/01 04:39:12;;;;;;;10.02;6.78;;;2.00;99.90;;;;;;5000441;28;20933;-47
2020/12/01 04:41:37;;;;;;;7.68;6.13;;;2.00;99.90;;;;;;4996064;28;20491;-45
2020/12/01 04:44:03;;;;;;;9.57;6.93;;;2.00;99.90;;;;;;4999028;28;20416;-48
2020/12/01 04:46:33;;;;;;;9.00;7.07;;;2.00;99.90;;;;;;4998217;28;20417;-48
2020/12/01 04:49:04;;;;;;;7.90;6.53;;;2.00;99.90;;;;;;4997888;28;20443;-48
2020/12/01 04:51:38;;;;;;;9.15;6.40;;;2.10;99.90;;;;;;4996329;28;20412;-48
2020/12/01 04:54:25;;;;;;;8.95;7.07;;;2.10;99.90;;;;;;4997079;28;20436;-47
2020/12/01 04:57:10;;;;;;;9.05;6.88;;;2.00;99.90;;;;;;4995598;28;20410;-46
2020/12/01 04:59:46;;;;;;;10.23;7.65;;;2.00;99.90;;;;;;4976895;28;20489;-47
2020/12/01 05:02:19;;;;;;;8.68;7.32;;;2.00;99.90;;;;;;4985100;28;20503;-47
2020/12/01 05:05:07;;;;;;;7.93;6.45;;;2.00;99.90;;;;;;4997544;28;20399;-47
2020/12/01 05:07:47;;;;;;;8.75;6.72;;;1.90;99.90;;;;;;4998000;28;20412;-47
2020/12/01 05:10:14;;;;;;;7.50;6.70;;;2.00;99.90;;;;;;5000263;28;20686;-47
2020/12/01 05:12:42;;;;;;;7.75;6.63;;;1.90;99.90;;;;;;4987422;28;20409;-48
2020/12/01 05:15:18;;;;;;;11.90;7.03;;;1.90;99.90;;;;;;5004254;28;20400;-48
2020/12/01 05:18:13;;;;;;;9.45;7.55;;;1.80;99.90;;;;;;5000246;28;20404;-47
2020/12/01 05:20:45;;;;;;;12.13;7.68;;;1.80;99.90;;;;;;5003408;28;20927;-48
2020/12/01 05:23:10;;;;;;;9.07;7.95;;;1.70;99.90;;;;;;4995731;28;20925;-48
2020/12/01 05:25:36;;;;;;;11.73;7.22;;;1.60;99.90;;;;;;5003784;28;20409;-47
2020/12/01 05:28:13;;;;;;;11.43;7.53;;;1.60;99.90;;;;;;4999842;28;20408;-48
2020/12/01 05:30:40;;;;;;;8.57;7.55;;;1.60;99.90;;;;;;5003009;28;20439;-47
2020/12/01 05:33:20;;;;;;;9.10;8.05;;;1.60;99.90;;;;;;5001287;28;20497;-48
2020/12/01 05:36:18;;;;;;;9.30;7.32;;;1.50;99.90;;;;;;5016958;28;20768;-47
2020/12/01 05:38:54;;;;;;;10.15;8.27;;;1.50;99.90;;;;;;4993488;28;20447;-47
2020/12/01 05:41:30;;;;;;;12.50;8.35;;;1.50;99.90;;;;;;5000228;28;20526;-47
2020/12/01 05:44:01;;;;;;;10.02;8.05;;;1.50;99.90;;;;;;5003060;28;20440;-47
2020/12/01 05:46:31;;;;;;;12.65;9.68;;;1.50;99.90;;;;;;5001679;28;20918;-46
2020/12/01 05:49:05;;;;;;;12.63;9.73;;;1.50;99.90;;;;;;5002675;28;20424;-48
2020/12/01 05:51:42;;;;;;;11.13;7.82;;;1.50;99.90;;;;;;4993820;28;21114;-47
2020/12/01 05:54:31;;;;;;;10.02;8.40;;;1.50;99.90;;;;;;4983640;28;20411;-46
2020/12/01 05:56:57;;;;;;;11.02;7.88;;;1.50;99.90;;;;;;5003901;28;20458;-47
2020/12/01 05:59:23;;;;;;;9.77;7.35;;;1.50;99.90;;;;;;5008513;28;20420;-47
2020/12/01 06:01:59;;;;;;;11.47;7.60;;;1.50;99.90;;;;;;4992932;28;20406;-47
2020/12/01 06:04:25;;;;;;;8.48;7.15;;;1.50;99.90;;;;;;5004145;28;20393;-47
2020/12/01 06:07:12;;;;;;;9.50;8.25;;;1.50;99.90;;;;;;5002828;28;20932;-46
2020/12/01 06:10:13;;;;;;;11.77;9.00;;;1.50;99.90;;;;;;5005773;28;20410;-47
2020/12/01 06:13:01;;;;;;;10.15;7.82;;;1.50;99.90;;;;;;5001586;28;20927;-47
2020/12/01 06:15:26;;;;;;;9.07;8.10;;;1.50;99.90;;;;;;4995534;28;20457;-46
2020/12/01 06:18:31;;;;;;;8.53;7.57;;;1.50;99.90;;;;;;5002147;28;20403;-48
2020/12/01 06:21:02;;;;;;;9.95;7.97;;;1.50;99.90;;;;;;4958749;28;20429;-47
2020/12/01 06:23:44;;;;;;;8.65;7.43;;;1.50;99.90;;;;;;4989826;28;20445;-47
2020/12/01 06:26:47;;;;;;;9.02;7.95;;;1.50;99.90;;;;;;5010942;28;20416;-47
2020/12/01 06:29:12;;;;;;;11.35;8.50;;;1.60;99.90;;;;;;4995084;28;20759;-46
2020/12/01 06:32:05;;;;;;;12.63;8.10;;;1.50;99.90;;;;;;5002066;28;20407;-47
2020/12/01 06:34:49;;;;;;;10.13;8.00;;;1.60;99.90;;;;;;4995157;28;20407;-46
2020/12/01 06:37:24;;;;;;;9.50;7.72;;;1.50;99.90;;;;;;5001808;28;20768;-47
2020/12/01 06:40:11;;;;;;;10.73;8.23;;;1.50;99.90;;;;;;5004692;28;20471;-46
2020/12/01 06:42:43;;;;;;;10.88;8.70;;;1.50;99.90;;;;;;5001134;28;21519;-46
2020/12/01 06:45:12;;;;;;;12.18;8.70;;;1.50;99.90;;;;;;5004942;28;20413;-48
2020/12/01 06:47:37;;;;;;;9.90;8.15;;;1.50;99.90;;;;;;4998587;28;20492;-46
2020/12/01 06:50:05;;;;;;;9.15;7.63;;;1.50;99.90;;;;;;5001651;28;20903;-46
2020/12/01 06:52:30;;;;;;;8.83;7.90;;;1.50;99.90;;;;;;4985028;28;20903;-47
2020/12/01 06:54:57;;;;;;;10.33;8.37;;;1.60;99.90;;;;;;5005315;28;20477;-45
2020/12/01 06:57:35;;;;;;;11.18;8.70;;;1.60;99.90;;;;;;5007681;28;20416;-48
2020/12/01 07:00:01;;;;;;;10.07;7.73;;;1.50;99.90;;;;;;5002542;28;20430;-48
2020/12/01 07:02:29;;;;;;;9.55;8.18;;;1.60;99.90;;;;;;4996304;28;20985;-46
2020/12/01 07:05:07;;;;;;;12.95;9.07;;;1.60;99.90;;;;;;5002146;28;20559;-46
2020/12/01 07:07:34;;;;;;;10.20;8.30;;;1.60;99.90;;;;;;4997192;28;20410;-47
2020/12/01 07:10:00;;;;;;;11.32;8.63;;;1.60;99.90;;;;;;4998772;28;20458;-44
2020/12/01 07:12:32;;;;;;;11.17;8.43;;;1.50;99.90;;;;;;5004233;28;20424;-45
2020/12/01 07:15:07;;;;;;;11.80;8.80;;;1.60;99.90;;;;;;4988947;28;20463;-47
2020/12/01 07:17:35;;;;;;;9.52;8.48;;;1.60;99.90;;;;;;5000760;28;20413;-44
2020/12/01 07:20:32;;;;;;;10.13;8.00;;;1.60;99.90;;;;;;5002600;28;20789;-45
2020/12/01 07:23:16;;;;;;;10.90;8.23;;;1.60;99.90;;;;;;4997162;28;20404;-46
2020/12/01 07:25:53;;;;;;;10.90;8.57;;;1.60;99.90;;;;;;4970088;28;20594;-46
2020/12/01 07:28:33;;;;;;;11.52;8.27;;;1.70;99.90;;;;;;4987633;28;20769;-44
2020/12/01 07:31:01;;;;;;;10.52;9.43;;;1.70;99.90;;;;;;5000273;28;20412;-48
2020/12/01 07:33:29;;;;;;;12.13;9.60;;;1.70;99.90;;;;;;4998594;28;20519;-47
2020/12/01 07:36:25;;;;;;;11.13;8.23;;;1.70;99.90;;;;;;4984879;28;20441;-47
2020/12/01 07:39:00;;;;;;;10.85;9.15;;;1.70;99.90;;;;;;4995634;28;20492;-47
2020/12/01 07:41:27;;;;;;;13.05;9.80;;;1.70;99.90;;;;;;4979213;28;20398;-48
2020/12/01 07:44:06;;;;;;;11.60;8.77;;;1.70;99.90;;;;;;4992518;28;20497;-47
2020/12/01 07:46:40;;;;;;;11.23;9.05;;;1.70;99.90;;;;;;5002985;28;20438;-45
2020/12/01 07:49:05;;;;;;;14.00;9.43;;;1.70;99.90;;;;;;4993110;28;20819;-48
2020/12/01 07:51:31;;;;;;;11.23;9.50;;;1.90;99.90;;;;;;5004210;28;20631;-47
2020/12/01 07:53:57;;;;;;;10.00;8.90;;;1.80;99.90;;;;;;4971670;28;20463;-48
2020/12/01 07:56:24;;;;;;;10.13;8.88;;;1.80;99.90;;;;;;4997232;28;20427;-45
2020/12/01 07:59:04;;;;;;;11.95;9.13;;;1.80;99.90;;;;;;5004416;28;20484;-46
2020/12/01 08:01:29;;;;;;;10.30;8.77;;;1.80;99.90;;;;;;4980959;28;20749;-46
2020/12/01 08:04:24;;;;;;;12.57;9.90;;;1.80;99.90;;;;;;5000421;28;20405;-47
2020/12/01 08:07:03;;;;;;;13.07;9.75;;;1.80;99.90;;;;;;5002600;28;20408;-46
2020/12/01 08:09:29;;;;;;;11.77;9.30;;;1.80;99.90;;;;;;4998043;28;20402;-46
2020/12/01 08:11:58;;;;;;;12.88;9.15;;;1.90;99.90;;;;;;4997308;28;20444;-47
2020/12/01 08:14:24;;;;;;;13.20;9.98;;;1.90;99.90;;;;;;4986021;28;20413;-46
2020/12/01 08:17:02;;;;;;;11.18;9.15;;;1.90;99.90;;;;;;5005214;28;20397;-47
2020/12/01 08:19:29;;;;;;;11.75;9.65;;;1.90;99.90;;;;;;4999198;28;20421;-47
2020/12/01 08:21:55;;;;;;;11.85;8.57;;;2.00;99.90;;;;;;4998505;28;20401;-49
2020/12/01 08:24:21;;;;;;;13.97;8.70;;;2.00;99.90;;;;;;4998413;28;20921;-48
2020/12/01 08:26:47;;;;;;;10.47;8.93;;;2.00;99.90;;;;;;4997936;28;21056;-48
2020/12/01 08:29:21;;;;;;;11.60;8.57;;;2.00;99.90;;;;;;5004708;28;20392;-49
2020/12/01 08:32:06;;;;;;;13.77;9.20;;;2.10;99.90;;;;;;5000056;28;20405;-48
2020/12/01 08:34:46;;;;;;;11.00;9.00;;;2.10;99.90;;;;;;4992185;28;20799;-47
2020/12/01 08:37:27;;;;;;;14.10;9.85;;;2.10;99.90;;;;;;4982249;28;20511;-51
2020/12/01 08:40:11;;;;;;;10.68;8.90;;;2.10;99.90;;;;;;4994350;28;20492;-47
2020/12/01 08:42:49;;;;;;;11.32;8.90;;;2.00;99.90;;;;;;4999021;28;20401;-53
2020/12/01 08:45:14;;;;;;;12.32;9.02;;;2.20;99.90;;;;;;4990145;28;20401;-48
2020/12/01 08:47:43;;;;;;;10.60;8.43;;;2.20;99.90;;;;;;5003152;28;20683;-48
2020/12/01 08:50:19;;;;;;;10.95;8.55;;;2.30;99.90;;;;;;5000240;28;20412;-48
2020/12/01 08:52:46;;;;;;;12.60;8.88;;;2.40;99.90;;;;;;4995632;28;20414;-48
2020/12/01 08:55:41;;;;;;;11.85;8.98;;;2.40;99.90;;;;;;4997020;28;20823;-48
2020/12/01 08:58:14;;;;;;;11.00;9.18;;;2.40;99.90;;;;;;4999257;28;20393;-47
2020/12/01 09:01:09;;;;;;;10.38;8.93;;;2.50;99.90;;;;;;5004030;28;20463;-48
2020/12/01 09:03:36;;;;;;;11.00;8.60;;;2.50;99.90;;;;;;4999346;28;20428;-48
2020/12/01 09:06:04;;;;;;;12.35;9.00;;;2.50;99.90;;;;;;4998521;28;20392;-48
2020/12/01 09:08:42;;;;;;;10.02;7.85;;;2.50;99.90;;;;;;5000904;28;20409;-49
2020/12/01 09:13:56;;;;;;;10.30;8.88;;;2.50;99.90;;;;;;5009575;28;20411;-47
2020/12/01 09:16:53;;;;;;;12.50;8.70;;;2.50;99.90;;;;;;5000586;28;20566;-48
2020/12/01 09:22:38;;;;;;;11.95;9.13;;;2.60;99.90;;;;;;4997568;28;25618;-47
2020/12/01 09:25:15;;;;;;;13.65;10.07;;;2.60;99.90;;;;;;4995828;28;20428;-48
2020/12/01 09:27:41;;;;;;;11.38;9.02;;;2.70;99.90;;;;;;5009224;28;20820;-48
2020/12/01 09:30:25;;;;;;;12.23;8.93;;;2.70;99.90;;;;;;4998080;28;20402;-48
2020/12/01 09:32:50;;;;;;;11.25;9.35;;;2.70;99.90;;;;;;5001857;28;20404;-49
2020/12/01 09:35:16;;;;;;;11.70;9.38;;;2.80;99.90;;;;;;5003025;28;20749;-49
2020/12/01 09:37:41;;;;;;;11.90;8.93;;;2.80;99.90;;;;;;5004322;28;20436;-46
2020/12/01 09:40:07;;;;;;;11.63;9.47;;;2.90;99.90;;;;;;4987954;28;20428;-47
2020/12/01 09:42:36;;;;;;;12.30;9.30;;;2.90;99.90;;;;;;5004815;28;20436;-49
2020/12/01 09:45:17;;;;;;;10.88;8.77;;;3.00;99.90;;;;;;5003881;28;20397;-48
2020/12/01 09:47:51;;;;;;;12.77;9.63;;;3.00;99.90;;;;;;4998905;28;20414;-48
2020/12/01 09:50:30;;;;;;;10.20;8.85;;;3.10;99.90;;;;;;5006038;28;20413;-48
2020/12/01 09:53:07;;;;;;;11.80;9.10;;;3.10;99.90;;;;;;4987818;28;20409;-47
2020/12/01 10:09:02;;;;;;;12.85;9.40;;;3.30;99.90;;;;;;5000694;28;20397;-48
2020/12/01 10:17:49;;;;;;;12.23;9.90;;;3.30;99.90;;;;;;4982436;28;20420;-48
2020/12/01 10:34:20;;;;;;;11.10;9.02;;;3.40;99.90;;;;;;5005080;28;20409;-48
2020/12/01 10:36:44;;;;;;;12.90;10.02;;;3.40;99.90;;;;;;4999001;28;20515;-47
2020/12/01 10:39:09;;;;;;;11.30;9.17;;;3.50;99.90;;;;;;4996844;28;20767;-48
2020/12/01 10:41:35;;;;;;;11.23;9.13;;;3.60;99.90;;;;;;5004974;28;20416;-48
2020/12/01 10:44:01;;;;;;;13.43;9.88;;;3.60;99.90;;;;;;5001489;28;20420;-47
2020/12/01 10:46:27;;;;;;;13.35;10.00;;;3.60;99.90;;;;;;5002700;28;20417;-49
2020/12/01 10:48:53;;;;;;;12.30;9.75;;;3.60;99.90;;;;;;5004859;28;20841;-48
2020/12/01 10:51:18;;;;;;;12.50;9.87;;;3.60;99.90;;;;;;4995271;28;20929;-47
2020/12/01 10:53:44;;;;;;;12.48;9.23;;;3.60;99.90;;;;;;5001825;28;20404;-53
2020/12/01 10:56:10;;;;;;;11.30;9.27;;;3.70;99.90;;;;;;5006999;28;20432;-48
2020/12/01 10:58:35;;;;;;;11.52;9.38;;;3.70;99.90;;;;;;5000585;28;20493;-48
2020/12/01 11:01:01;;;;;;;12.03;9.83;;;3.80;99.90;;;;;;5007170;28;20444;-47
2020/12/01 11:03:28;;;;;;;12.20;9.40;;;3.90;99.90;;;;;;5000985;28;20453;-47
2020/12/01 11:05:53;;;;;;;10.20;8.90;;;3.90;99.90;;;;;;5002742;28;20637;-48
2020/12/01 11:08:19;;;;;;;9.55;8.55;;;3.90;99.90;;;;;;5007326;28;20400;-48
2020/12/01 11:10:44;;;;;;;12.83;9.60;;;4.00;99.90;;;;;;4990165;28;20437;-49
2020/12/01 11:13:10;;;;;;;11.52;9.10;;;4.10;99.90;;;;;;4989924;28;20404;-48
2020/12/01 11:15:36;;;;;;;12.00;9.87;;;4.20;99.90;;;;;;4964805;28;20887;-48
2020/12/01 11:18:01;;;;;;;11.43;8.82;;;4.40;99.90;;;;;;5004866;28;20409;-48
2020/12/01 11:20:27;;;;;;;10.50;8.88;;;4.60;99.90;;;;;;4997542;28;20393;-48
2020/12/01 11:22:53;;;;;;;12.70;9.13;;;4.70;99.90;;;;;;5000220;28;20843;-48
2020/12/01 11:25:18;;;;;;;10.40;8.75;;;4.80;99.90;;;;;;5007089;28;20467;-48
2020/12/01 11:27:44;;;;;;;11.13;8.83;;;4.90;99.90;;;;;;5000139;28;20467;-53
2020/12/01 11:30:10;;;;;;;11.03;8.57;;;5.00;99.90;;;;;;5006093;28;20438;-48
2020/12/01 11:32:35;;;;;;;10.27;8.57;;;5.20;99.90;;;;;;5002144;28;20409;-47
2020/12/01 11:35:02;;;;;;;10.03;8.17;;;5.30;99.90;;;;;;5005338;28;20401;-49
2020/12/01 11:37:27;;;;;;;11.38;8.65;;;5.60;99.90;;;;;;5007169;28;20432;-48
2020/12/01 11:39:53;;;;;;;10.57;8.53;;;5.80;99.90;;;;;;5003600;28;20444;-49
2020/12/01 11:42:19;;;;;;;11.50;8.52;;;6.00;99.90;;;;;;5005311;28;20413;-50
2020/12/01 11:44:44;;;;;;;11.80;8.33;;;6.00;99.90;;;;;;5003843;28;20968;-49
2020/12/01 11:47:10;;;;;;;9.73;7.65;;;5.80;99.90;;;;;;4999378;28;20397;-49
2020/12/01 11:49:36;;;;;;;9.90;8.23;;;5.70;99.90;;;;;;5001936;28;20401;-48
2020/12/01 11:52:01;;;;;;;10.70;8.60;;;5.50;99.90;;;;;;5007170;28;20467;-49
2020/12/01 11:54:27;;;;;;;9.68;8.20;;;5.40;99.90;;;;;;5002235;28;20961;-49
2020/12/01 11:56:52;;;;;;;8.27;7.37;;;5.20;99.90;;;;;;5005239;28;20425;-50
2020/12/01 11:59:18;;;;;;;10.45;8.27;;;5.10;99.90;;;;;;5000957;28;20420;-47
2020/12/01 12:01:46;;;;;;;12.20;8.90;;;5.10;99.90;;;;;;5003728;28;20786;-48
2020/12/01 12:04:11;;;;;;;8.40;7.15;;;5.00;99.90;;;;;;4999337;28;20401;-47
2020/12/01 12:06:37;;;;;;;8.80;7.17;;;4.90;99.90;;;;;;5005014;28;20407;-49
2020/12/01 12:09:04;;;;;;;10.52;8.32;;;4.90;99.90;;;;;;5001376;28;20411;-46
2020/12/01 12:11:30;;;;;;;9.32;6.97;;;5.00;99.90;;;;;;5003499;28;20435;-47
2020/12/01 12:13:55;;;;;;;9.82;7.07;;;5.00;99.90;;;;;;5002726;28;20832;-47
2020/12/01 12:16:21;;;;;;;9.67;7.60;;;5.10;99.90;;;;;;5004914;28;20815;-48
2020/12/01 12:18:47;;;;;;;7.60;6.55;;;5.10;99.90;;;;;;4984803;28;20996;-48
2020/12/01 12:21:12;;;;;;;10.63;7.53;;;5.20;99.90;;;;;;5005211;28;20942;-48
2020/12/01 12:23:38;;;;;;;9.37;7.50;;;5.10;99.90;;;;;;5006201;28;20397;-47
2020/12/01 12:26:04;;;;;;;9.05;7.10;;;5.00;99.90;;;;;;5003189;28;20439;-48
2020/12/01 12:28:29;;;;;;;16.00;10.60;;;5.00;99.90;;;;;;4989334;28;20440;-48
2020/12/01 12:30:55;;;;;;;8.13;7.13;;;5.00;99.90;;;;;;5006475;28;20429;-48
2020/12/01 12:33:21;;;;;;;8.75;6.35;;;5.00;99.90;;;;;;5004949;28;20420;-47
2020/12/01 12:35:50;;;;;;;9.20;7.33;;;5.10;99.90;;;;;;5006051;28;20389;-48
2020/12/01 12:38:17;;;;;;;9.60;6.82;;;5.00;99.90;;;;;;5000733;28;20400;-49
2020/12/01 12:40:42;;;;;;;8.50;6.77;;;5.00;99.90;;;;;;5007065;28;20483;-48
2020/12/01 12:43:08;;;;;;;8.57;6.67;;;5.00;99.90;;;;;;5006655;28;20767;-48
2020/12/01 12:45:34;;;;;;;8.23;6.53;;;4.90;99.90;;;;;;4998042;28;20411;-49
2020/12/01 12:47:59;;;;;;;6.73;6.03;;;5.00;99.90;;;;;;5004191;28;20389;-47
2020/12/01 12:50:25;;;;;;;7.72;6.72;;;5.00;99.90;;;;;;4991048;28;20902;-49
2020/12/01 12:52:51;;;;;;;8.13;5.90;;;5.10;99.90;;;;;;5006032;28;20423;-48
2020/12/01 12:55:17;;;;;;;7.60;6.40;;;5.10;99.90;;;;;;5003423;28;20397;-48
2020/12/01 12:57:43;;;;;;;8.03;6.63;;;5.10;99.90;;;;;;5006216;28;20431;-48
2020/12/01 13:00:08;;;;;;;7.97;6.45;;;5.10;99.90;;;;;;5001126;28;20398;-45
2020/12/01 13:02:34;;;;;;;9.30;6.90;;;4.90;99.90;;;;;;5004799;28;20732;-48
2020/12/01 13:04:59;;;;;;;7.78;6.65;;;4.80;99.90;;;;;;5003657;28;20903;-47
2020/12/01 13:07:25;;;;;;;9.47;6.53;;;4.80;99.90;;;;;;5004656;28;20392;-46
2020/12/01 13:09:51;;;;;;;6.90;6.20;;;4.80;99.90;;;;;;4999655;28;20466;-48
2020/12/01 13:12:16;;;;;;;9.07;6.22;;;4.70;99.90;;;;;;5001296;28;20407;-48
2020/12/01 13:14:42;;;;;;;8.37;6.57;;;4.80;99.90;;;;;;5004486;28;20396;-48
2020/12/01 13:17:07;;;;;;;8.70;6.70;;;4.80;99.90;;;;;;5005452;28;20436;-47
2020/12/01 13:19:33;;;;;;;7.73;6.67;;;4.70;99.90;;;;;;4988332;28;20410;-47
2020/12/01 13:21:59;;;;;;;7.90;6.13;;;4.60;99.90;;;;;;5005326;28;21010;-48
2020/12/01 13:24:24;;;;;;;8.53;6.97;;;4.60;99.90;;;;;;5001504;28;20436;-48
2020/12/01 13:26:51;;;;;;;8.13;6.30;;;4.60;99.90;;;;;;5004413;28;20433;-48
2020/12/01 13:29:17;;;;;;;7.65;6.05;;;4.60;99.90;;;;;;4998094;28;20405;-50
2020/12/01 13:31:46;;;;;;;8.05;6.38;;;4.60;99.90;;;;;;5008711;28;20392;-49
2020/12/01 13:34:11;;;;;;;7.65;6.22;;;4.60;99.90;;;;;;5006109;28;20441;-49
2020/12/01 13:36:37;;;;;;;9.60;7.30;;;4.50;99.90;;;;;;5006480;28;20895;-50
2020/12/01 13:39:02;;;;;;;7.30;6.23;;;4.50;99.90;;;;;;5005603;28;20447;-48
2020/12/01 13:41:28;;;;;;;7.18;6.15;;;4.50;99.90;;;;;;5003573;28;20455;-48
2020/12/01 13:43:54;;;;;;;9.33;6.27;;;4.50;99.90;;;;;;5005622;28;20397;-49